sensor_id;sensor_type;location;lat;lon;timestamp;temperature;humidity
17918;DHT22;9084;50.956;3.106;2024-02-26T00:00:58;7.70;80.90
17918;DHT22;9084;50.956;3.106;2024-02-26T00:03:24;7.70;99.90
17918;DHT22;9084;50.956;3.106;2024-02-26T00:05:49;7.70;99.90
17918;DHT22;9084;50.956;3.106;2024-02-26T00:08:19;7.70;99.90
17918;DHT22;9084;50.956;3.106;2024-02-26T00:10:47;7.70;99.90
17918;DHT22;9084;50.956;3.106;2024-02-26T00:13:13;7.70;99.90
17918;DHT22;9084;50.956;3.106;2024-02-26T00:15:39;7.70;99.90
17918;DHT22;9084;50.956;3.106;2024-02-26T00:18:07;7.70;99.90
17918;DHT22;9084;50.956;3.106;2024-02-26T00:20:33;7.60;99.90
17918;DHT22;9084;50.956;3.106;2024-02-26T00:22:59;7.60;99.90
17918;DHT22;9084;50.956;3.106;2024-02-26T00:25:24;7.60;99.90
17918;DHT22;9084;50.956;3.106;2024-02-26T00:27:50;7.60;99.90
17918;DHT22;9084;50.956;3.106;2024-02-26T00:30:16;7.60;99.90
17918;DHT22;9084;50.956;3.106;2024-02-26T00:32:41;7.60;99.90
17918;DHT22;9084;50.956;3.106;2024-02-26T00:35:07;7.50;99.90
17918;DHT22;9084;50.956;3.106;2024-02-26T00:37:37;7.50;99.90
17918;DHT22;9084;50.956;3.106;2024-02-26T00:40:03;7.50;99.90
17918;DHT22;9084;50.956;3.106;2024-02-26T00:42:28;7.50;99.90
17918;DHT22;9084;50.956;3.106;2024-02-26T00:44:56;7.50;99.90
17918;DHT22;9084;50.956;3.106;2024-02-26T00:47:22;7.50;99.90
17918;DHT22;9084;50.956;3.106;2024-02-26T00:49:47;7.50;99.90
17918;DHT22;9084;50.956;3.106;2024-02-26T00:52:13;7.50;99.90
17918;DHT22;9084;50.956;3.106;2024-02-26T00:54:41;7.50;99.90
17918;DHT22;9084;50.956;3.106;2024-02-26T00:57:07;7.50;99.90
17918;DHT22;9084;50.956;3.106;2024-02-26T00:59:35;7.40;99.90
17918;DHT22;9084;50.956;3.106;2024-02-26T01:02:00;7.40;99.90
17918;DHT22;9084;50.956;3.106;2024-02-26T01:04:27;7.40;99.90
17918;DHT22;9084;50.956;3.106;2024-02-26T01:06:55;7.40;99.90
17918;DHT22;9084;50.956;3.106;2024-02-26T01:09:23;7.40;99.90
17918;DHT22;9084;50.956;3.106;2024-02-26T01:11:48;7.40;99.90
17918;DHT22;9084;50.956;3.106;2024-02-26T01:14:14;7.40;99.90
17918;DHT22;9084;50.956;3.106;2024-02-26T01:16:40;7.40;99.90
17918;DHT22;9084;50.956;3.106;2024-02-26T01:19:05;7.40;99.90
17918;DHT22;9084;50.956;3.106;2024-02-26T01:21:31;7.40;99.90
17918;DHT22;9084;50.956;3.106;2024-02-26T01:23:57;7.40;99.90
17918;DHT22;9084;50.956;3.106;2024-02-26T01:26:23;7.30;99.90
17918;DHT22;9084;50.956;3.106;2024-02-26T01:28:51;7.40;99.90
17918;DHT22;9084;50.956;3.106;2024-02-26T01:31:19;7.40;99.90
17918;DHT22;9084;50.956;3.106;2024-02-26T01:33:47;7.30;99.90
17918;DHT22;9084;50.956;3.106;2024-02-26T01:36:17;7.30;99.90
17918;DHT22;9084;50.956;3.106;2024-02-26T01:38:45;7.30;99.90
17918;DHT22;9084;50.956;3.106;2024-02-26T01:41:11;7.30;99.90
17918;DHT22;9084;50.956;3.106;2024-02-26T01:43:36;7.30;99.90
17918;DHT22;9084;50.956;3.106;2024-02-26T01:46:03;7.30;99.90
17918;DHT22;9084;50.956;3.106;2024-02-26T01:48:29;7.30;99.90
17918;DHT22;9084;50.956;3.106;2024-02-26T01:50:54;7.30;99.90
17918;DHT22;9084;50.956;3.106;2024-02-26T01:53:21;7.30;99.90
17918;DHT22;9084;50.956;3.106;2024-02-26T01:55:49;7.30;99.90
17918;DHT22;9084;50.956;3.106;2024-02-26T01:58:17;7.30;99.90
17918;DHT22;9084;50.956;3.106;2024-02-26T02:00:43;7.30;99.90
17918;DHT22;9084;50.956;3.106;2024-02-26T02:03:09;7.30;99.90
17918;DHT22;9084;50.956;3.106;2024-02-26T02:05:35;7.30;99.90
17918;DHT22;9084;50.956;3.106;2024-02-26T02:08:07;7.30;99.90
17918;DHT22;9084;50.956;3.106;2024-02-26T02:10:33;7.20;99.90
17918;DHT22;9084;50.956;3.106;2024-02-26T02:12:59;7.20;99.90
17918;DHT22;9084;50.956;3.106;2024-02-26T02:15:25;7.20;99.90
17918;DHT22;9084;50.956;3.106;2024-02-26T02:17:55;7.20;99.90
17918;DHT22;9084;50.956;3.106;2024-02-26T02:20:34;7.30;99.90
17918;DHT22;9084;50.956;3.106;2024-02-26T02:23:04;7.20;99.90
17918;DHT22;9084;50.956;3.106;2024-02-26T02:25:30;7.20;99.90
17918;DHT22;9084;50.956;3.106;2024-02-26T02:27:57;7.20;99.90
17918;DHT22;9084;50.956;3.106;2024-02-26T02:30:29;7.10;99.90
17918;DHT22;9084;50.956;3.106;2024-02-26T02:32:57;7.10;99.90
17918;DHT22;9084;50.956;3.106;2024-02-26T02:35:26;7.10;99.90
17918;DHT22;9084;50.956;3.106;2024-02-26T02:37:56;7.10;99.90
17918;DHT22;9084;50.956;3.106;2024-02-26T02:40:22;7.10;99.90
17918;DHT22;9084;50.956;3.106;2024-02-26T02:42:50;7.10;99.90
17918;DHT22;9084;50.956;3.106;2024-02-26T02:45:16;7.10;99.90
17918;DHT22;9084;50.956;3.106;2024-02-26T02:47:44;7.10;99.90
17918;DHT22;9084;50.956;3.106;2024-02-26T02:50:18;7.10;99.90
17918;DHT22;9084;50.956;3.106;2024-02-26T02:52:43;7.10;99.90
17918;DHT22;9084;50.956;3.106;2024-02-26T02:55:12;7.10;99.90
17918;DHT22;9084;50.956;3.106;2024-02-26T02:57:40;7.10;99.90
17918;DHT22;9084;50.956;3.106;2024-02-26T03:00:09;7.10;99.90
17918;DHT22;9084;50.956;3.106;2024-02-26T03:02:35;7.10;99.90
17918;DHT22;9084;50.956;3.106;2024-02-26T03:05:04;7.10;99.90
17918;DHT22;9084;50.956;3.106;2024-02-26T03:07:30;7.10;99.90
17918;DHT22;9084;50.956;3.106;2024-02-26T03:09:58;7.10;99.90
17918;DHT22;9084;50.956;3.106;2024-02-26T03:12:23;7.10;99.90
17918;DHT22;9084;50.956;3.106;2024-02-26T03:14:49;7.10;99.90
17918;DHT22;9084;50.956;3.106;2024-02-26T03:17:15;7.10;99.90
17918;DHT22;9084;50.956;3.106;2024-02-26T03:19:43;7.10;99.90
17918;DHT22;9084;50.956;3.106;2024-02-26T03:22:12;7.10;99.90
17918;DHT22;9084;50.956;3.106;2024-02-26T03:24:38;7.10;99.90
17918;DHT22;9084;50.956;3.106;2024-02-26T03:27:04;7.10;99.90
17918;DHT22;9084;50.956;3.106;2024-02-26T03:29:35;7.10;99.90
17918;DHT22;9084;50.956;3.106;2024-02-26T03:32:03;7.10;99.90
17918;DHT22;9084;50.956;3.106;2024-02-26T03:34:31;7.10;99.90
17918;DHT22;9084;50.956;3.106;2024-02-26T03:36:59;7.10;99.90
17918;DHT22;9084;50.956;3.106;2024-02-26T03:39:25;7.10;99.90
17918;DHT22;9084;50.956;3.106;2024-02-26T03:41:51;7.20;99.90
17918;DHT22;9084;50.956;3.106;2024-02-26T03:44:16;7.20;99.90
17918;DHT22;9084;50.956;3.106;2024-02-26T03:46:42;7.20;99.90
17918;DHT22;9084;50.956;3.106;2024-02-26T03:49:10;7.10;99.90
17918;DHT22;9084;50.956;3.106;2024-02-26T03:51:36;7.10;99.90
17918;DHT22;9084;50.956;3.106;2024-02-26T03:54:05;7.10;99.90
17918;DHT22;9084;50.956;3.106;2024-02-26T03:56:33;7.10;99.90
17918;DHT22;9084;50.956;3.106;2024-02-26T03:59:01;7.10;99.90
17918;DHT22;9084;50.956;3.106;2024-02-26T04:01:30;7.10;99.90
17918;DHT22;9084;50.956;3.106;2024-02-26T04:03:56;7.00;99.90
17918;DHT22;9084;50.956;3.106;2024-02-26T04:06:21;7.00;99.90
17918;DHT22;9084;50.956;3.106;2024-02-26T04:08:48;7.00;99.90
17918;DHT22;9084;50.956;3.106;2024-02-26T04:11:16;7.00;99.90
17918;DHT22;9084;50.956;3.106;2024-02-26T04:13:44;6.90;99.90
17918;DHT22;9084;50.956;3.106;2024-02-26T04:16:15;6.90;99.90
17918;DHT22;9084;50.956;3.106;2024-02-26T04:18:43;6.90;99.90
17918;DHT22;9084;50.956;3.106;2024-02-26T04:21:11;6.90;99.90
17918;DHT22;9084;50.956;3.106;2024-02-26T04:23:39;6.90;99.90
17918;DHT22;9084;50.956;3.106;2024-02-26T04:26:05;6.90;99.90
17918;DHT22;9084;50.956;3.106;2024-02-26T04:28:30;6.90;99.90
17918;DHT22;9084;50.956;3.106;2024-02-26T04:30:56;6.90;99.90
17918;DHT22;9084;50.956;3.106;2024-02-26T04:33:22;6.90;99.90
17918;DHT22;9084;50.956;3.106;2024-02-26T04:35:47;6.90;99.90
17918;DHT22;9084;50.956;3.106;2024-02-26T04:38:15;6.90;99.90
17918;DHT22;9084;50.956;3.106;2024-02-26T04:40:41;6.80;99.90
17918;DHT22;9084;50.956;3.106;2024-02-26T04:43:09;6.80;99.90
17918;DHT22;9084;50.956;3.106;2024-02-26T04:45:34;6.90;99.90
17918;DHT22;9084;50.956;3.106;2024-02-26T04:48:00;6.80;99.90
17918;DHT22;9084;50.956;3.106;2024-02-26T04:50:28;6.80;99.90
17918;DHT22;9084;50.956;3.106;2024-02-26T04:52:56;6.80;99.90
17918;DHT22;9084;50.956;3.106;2024-02-26T04:55:21;6.90;99.90
17918;DHT22;9084;50.956;3.106;2024-02-26T04:57:47;6.80;99.90
17918;DHT22;9084;50.956;3.106;2024-02-26T05:00:13;6.80;99.90
17918;DHT22;9084;50.956;3.106;2024-02-26T05:02:39;6.80;99.90
17918;DHT22;9084;50.956;3.106;2024-02-26T05:05:06;6.80;99.90
17918;DHT22;9084;50.956;3.106;2024-02-26T05:07:34;6.80;99.90
17918;DHT22;9084;50.956;3.106;2024-02-26T05:10:02;6.80;99.90
17918;DHT22;9084;50.956;3.106;2024-02-26T05:12:28;6.80;99.90
17918;DHT22;9084;50.956;3.106;2024-02-26T05:14:54;6.80;99.90
17918;DHT22;9084;50.956;3.106;2024-02-26T05:17:19;6.80;99.90
17918;DHT22;9084;50.956;3.106;2024-02-26T05:19:47;6.80;99.90
17918;DHT22;9084;50.956;3.106;2024-02-26T05:22:15;6.80;99.90
17918;DHT22;9084;50.956;3.106;2024-02-26T05:24:43;6.80;99.90
17918;DHT22;9084;50.956;3.106;2024-02-26T05:27:08;6.80;99.90
17918;DHT22;9084;50.956;3.106;2024-02-26T05:29:34;6.80;99.90
17918;DHT22;9084;50.956;3.106;2024-02-26T05:32:00;6.80;99.90
17918;DHT22;9084;50.956;3.106;2024-02-26T05:34:25;6.80;99.90
17918;DHT22;9084;50.956;3.106;2024-02-26T05:36:51;6.80;99.90
17918;DHT22;9084;50.956;3.106;2024-02-26T05:39:16;6.80;99.90
17918;DHT22;9084;50.956;3.106;2024-02-26T05:41:42;6.80;99.90
17918;DHT22;9084;50.956;3.106;2024-02-26T05:44:09;6.80;99.90
17918;DHT22;9084;50.956;3.106;2024-02-26T05:46:38;6.80;99.90
17918;DHT22;9084;50.956;3.106;2024-02-26T05:49:06;6.80;99.90
17918;DHT22;9084;50.956;3.106;2024-02-26T05:51:32;6.80;99.90
17918;DHT22;9084;50.956;3.106;2024-02-26T05:53:58;6.80;99.90
17918;DHT22;9084;50.956;3.106;2024-02-26T05:56:26;6.80;99.90
17918;DHT22;9084;50.956;3.106;2024-02-26T05:58:51;6.80;99.90
17918;DHT22;9084;50.956;3.106;2024-02-26T06:01:19;6.80;99.90
17918;DHT22;9084;50.956;3.106;2024-02-26T06:03:47;6.80;99.90
17918;DHT22;9084;50.956;3.106;2024-02-26T06:06:14;6.80;99.90
17918;DHT22;9084;50.956;3.106;2024-02-26T06:08:42;6.80;99.90
17918;DHT22;9084;50.956;3.106;2024-02-26T06:11:11;6.80;99.90
17918;DHT22;9084;50.956;3.106;2024-02-26T06:13:39;6.70;99.90
17918;DHT22;9084;50.956;3.106;2024-02-26T06:16:05;6.80;99.90
17918;DHT22;9084;50.956;3.106;2024-02-26T06:18:31;6.80;99.90
17918;DHT22;9084;50.956;3.106;2024-02-26T06:20:59;6.80;99.90
17918;DHT22;9084;50.956;3.106;2024-02-26T06:23:25;6.80;99.90
17918;DHT22;9084;50.956;3.106;2024-02-26T06:25:55;6.80;99.90
17918;DHT22;9084;50.956;3.106;2024-02-26T06:28:21;6.80;99.90
17918;DHT22;9084;50.956;3.106;2024-02-26T06:30:46;6.80;99.90
17918;DHT22;9084;50.956;3.106;2024-02-26T06:33:12;6.80;99.90
17918;DHT22;9084;50.956;3.106;2024-02-26T06:35:38;6.80;99.90
17918;DHT22;9084;50.956;3.106;2024-02-26T06:38:06;6.80;99.90
17918;DHT22;9084;50.956;3.106;2024-02-26T06:40:36;6.80;99.90
17918;DHT22;9084;50.956;3.106;2024-02-26T06:43:02;6.80;99.90
17918;DHT22;9084;50.956;3.106;2024-02-26T06:45:31;6.80;99.90
17918;DHT22;9084;50.956;3.106;2024-02-26T06:47:59;6.70;99.90
17918;DHT22;9084;50.956;3.106;2024-02-26T06:50:24;6.70;99.90
17918;DHT22;9084;50.956;3.106;2024-02-26T06:52:50;6.70;99.90
17918;DHT22;9084;50.956;3.106;2024-02-26T06:55:16;6.70;99.90
17918;DHT22;9084;50.956;3.106;2024-02-26T06:57:41;6.70;99.90
17918;DHT22;9084;50.956;3.106;2024-02-26T07:00:10;6.70;99.90
17918;DHT22;9084;50.956;3.106;2024-02-26T07:02:40;6.70;99.90
17918;DHT22;9084;50.956;3.106;2024-02-26T07:05:06;6.70;99.90
17918;DHT22;9084;50.956;3.106;2024-02-26T07:07:32;6.70;99.90
17918;DHT22;9084;50.956;3.106;2024-02-26T07:09:57;6.70;99.90
17918;DHT22;9084;50.956;3.106;2024-02-26T07:12:23;6.70;99.90
17918;DHT22;9084;50.956;3.106;2024-02-26T07:14:49;6.70;99.90
17918;DHT22;9084;50.956;3.106;2024-02-26T07:17:16;6.70;99.90
17918;DHT22;9084;50.956;3.106;2024-02-26T07:19:44;6.80;99.90
17918;DHT22;9084;50.956;3.106;2024-02-26T07:22:09;6.80;99.90
17918;DHT22;9084;50.956;3.106;2024-02-26T07:24:35;6.80;99.90
17918;DHT22;9084;50.956;3.106;2024-02-26T07:27:01;6.80;99.90
17918;DHT22;9084;50.956;3.106;2024-02-26T07:29:28;6.80;99.90
17918;DHT22;9084;50.956;3.106;2024-02-26T07:31:59;6.80;99.90
17918;DHT22;9084;50.956;3.106;2024-02-26T07:34:24;6.80;99.90
17918;DHT22;9084;50.956;3.106;2024-02-26T07:36:57;6.80;99.90
17918;DHT22;9084;50.956;3.106;2024-02-26T07:39:25;6.80;99.90
17918;DHT22;9084;50.956;3.106;2024-02-26T07:41:52;6.80;99.90
17918;DHT22;9084;50.956;3.106;2024-02-26T07:44:21;6.80;99.90
17918;DHT22;9084;50.956;3.106;2024-02-26T07:46:46;6.80;99.90
17918;DHT22;9084;50.956;3.106;2024-02-26T07:49:12;6.80;99.90
17918;DHT22;9084;50.956;3.106;2024-02-26T07:51:41;6.80;99.90
17918;DHT22;9084;50.956;3.106;2024-02-26T07:54:06;6.80;99.90
17918;DHT22;9084;50.956;3.106;2024-02-26T07:56:32;6.80;99.90
17918;DHT22;9084;50.956;3.106;2024-02-26T07:59:00;6.80;99.90
17918;DHT22;9084;50.956;3.106;2024-02-26T08:01:30;6.80;99.90
17918;DHT22;9084;50.956;3.106;2024-02-26T08:03:56;6.80;99.90
17918;DHT22;9084;50.956;3.106;2024-02-26T08:06:22;6.80;99.90
17918;DHT22;9084;50.956;3.106;2024-02-26T08:08:48;6.80;99.90
17918;DHT22;9084;50.956;3.106;2024-02-26T08:11:19;6.80;99.90
17918;DHT22;9084;50.956;3.106;2024-02-26T08:13:44;6.80;99.90
17918;DHT22;9084;50.956;3.106;2024-02-26T08:16:10;6.80;99.90
17918;DHT22;9084;50.956;3.106;2024-02-26T08:18:35;6.80;99.90
17918;DHT22;9084;50.956;3.106;2024-02-26T08:21:04;6.80;99.90
17918;DHT22;9084;50.956;3.106;2024-02-26T08:23:29;6.80;99.90
17918;DHT22;9084;50.956;3.106;2024-02-26T08:25:58;6.80;99.90
17918;DHT22;9084;50.956;3.106;2024-02-26T08:28:24;6.80;99.90
17918;DHT22;9084;50.956;3.106;2024-02-26T08:30:52;6.70;99.90
17918;DHT22;9084;50.956;3.106;2024-02-26T08:33:18;6.70;99.90
17918;DHT22;9084;50.956;3.106;2024-02-26T08:35:48;6.70;99.90
17918;DHT22;9084;50.956;3.106;2024-02-26T08:38:13;6.60;99.90
17918;DHT22;9084;50.956;3.106;2024-02-26T08:40:39;6.60;99.90
17918;DHT22;9084;50.956;3.106;2024-02-26T08:43:07;6.50;99.90
17918;DHT22;9084;50.956;3.106;2024-02-26T08:45:35;6.50;99.90
17918;DHT22;9084;50.956;3.106;2024-02-26T08:48:01;6.50;99.90
17918;DHT22;9084;50.956;3.106;2024-02-26T08:50:27;6.50;99.90
17918;DHT22;9084;50.956;3.106;2024-02-26T08:52:53;6.40;99.90
17918;DHT22;9084;50.956;3.106;2024-02-26T08:55:23;6.40;99.90
17918;DHT22;9084;50.956;3.106;2024-02-26T08:57:51;6.30;99.90
17918;DHT22;9084;50.956;3.106;2024-02-26T09:00:17;6.30;99.90
17918;DHT22;9084;50.956;3.106;2024-02-26T09:02:46;6.30;99.90
17918;DHT22;9084;50.956;3.106;2024-02-26T09:05:12;6.30;99.90
17918;DHT22;9084;50.956;3.106;2024-02-26T09:07:38;6.20;99.90
17918;DHT22;9084;50.956;3.106;2024-02-26T09:10:04;6.20;99.90
17918;DHT22;9084;50.956;3.106;2024-02-26T09:12:30;6.20;99.90
17918;DHT22;9084;50.956;3.106;2024-02-26T09:14:59;6.20;99.90
17918;DHT22;9084;50.956;3.106;2024-02-26T09:17:24;6.20;99.90
17918;DHT22;9084;50.956;3.106;2024-02-26T09:19:50;6.10;99.90
17918;DHT22;9084;50.956;3.106;2024-02-26T09:22:16;6.20;99.90
17918;DHT22;9084;50.956;3.106;2024-02-26T09:24:44;6.20;99.90
17918;DHT22;9084;50.956;3.106;2024-02-26T09:27:09;6.20;99.90
17918;DHT22;9084;50.956;3.106;2024-02-26T09:29:35;6.20;99.90
17918;DHT22;9084;50.956;3.106;2024-02-26T09:32:01;6.20;99.90
17918;DHT22;9084;50.956;3.106;2024-02-26T09:34:30;6.20;99.90
17918;DHT22;9084;50.956;3.106;2024-02-26T09:36:55;6.10;99.90
17918;DHT22;9084;50.956;3.106;2024-02-26T09:39:23;6.10;99.90
17918;DHT22;9084;50.956;3.106;2024-02-26T09:41:51;6.10;99.90
17918;DHT22;9084;50.956;3.106;2024-02-26T09:44:21;6.10;99.90
17918;DHT22;9084;50.956;3.106;2024-02-26T09:46:52;6.10;99.90
17918;DHT22;9084;50.956;3.106;2024-02-26T09:49:19;6.10;99.90
17918;DHT22;9084;50.956;3.106;2024-02-26T09:51:46;6.10;99.90
17918;DHT22;9084;50.956;3.106;2024-02-26T09:54:13;6.10;99.90
17918;DHT22;9084;50.956;3.106;2024-02-26T09:56:40;6.10;99.90
17918;DHT22;9084;50.956;3.106;2024-02-26T09:59:16;6.10;99.90
17918;DHT22;9084;50.956;3.106;2024-02-26T10:01:46;6.10;99.90
17918;DHT22;9084;50.956;3.106;2024-02-26T10:04:13;6.10;99.90
17918;DHT22;9084;50.956;3.106;2024-02-26T10:06:39;6.20;99.90
17918;DHT22;9084;50.956;3.106;2024-02-26T10:09:05;6.20;99.90
17918;DHT22;9084;50.956;3.106;2024-02-26T10:11:35;6.20;99.90
17918;DHT22;9084;50.956;3.106;2024-02-26T10:14:03;6.20;99.90
17918;DHT22;9084;50.956;3.106;2024-02-26T10:16:31;6.20;99.90
17918;DHT22;9084;50.956;3.106;2024-02-26T10:18:57;6.20;99.90
17918;DHT22;9084;50.956;3.106;2024-02-26T10:21:24;6.20;99.90
17918;DHT22;9084;50.956;3.106;2024-02-26T10:23:49;6.20;99.90
17918;DHT22;9084;50.956;3.106;2024-02-26T10:26:19;6.20;99.90
17918;DHT22;9084;50.956;3.106;2024-02-26T10:28:45;6.20;99.90
17918;DHT22;9084;50.956;3.106;2024-02-26T10:31:16;6.20;99.90
17918;DHT22;9084;50.956;3.106;2024-02-26T10:33:43;6.10;99.90
17918;DHT22;9084;50.956;3.106;2024-02-26T10:36:09;6.10;99.90
17918;DHT22;9084;50.956;3.106;2024-02-26T10:38:36;6.20;99.90
17918;DHT22;9084;50.956;3.106;2024-02-26T10:41:03;6.20;99.90
17918;DHT22;9084;50.956;3.106;2024-02-26T10:43:31;6.20;99.90
17918;DHT22;9084;50.956;3.106;2024-02-26T10:45:57;6.20;99.90
17918;DHT22;9084;50.956;3.106;2024-02-26T10:48:23;6.20;99.90
17918;DHT22;9084;50.956;3.106;2024-02-26T10:50:49;6.20;99.90
17918;DHT22;9084;50.956;3.106;2024-02-26T10:53:21;6.30;99.90
17918;DHT22;9084;50.956;3.106;2024-02-26T10:56:00;6.30;99.90
17918;DHT22;9084;50.956;3.106;2024-02-26T10:58:27;6.30;99.90
17918;DHT22;9084;50.956;3.106;2024-02-26T11:00:56;6.30;99.90
17918;DHT22;9084;50.956;3.106;2024-02-26T11:03:22;6.30;99.90
17918;DHT22;9084;50.956;3.106;2024-02-26T11:05:50;6.30;99.90
17918;DHT22;9084;50.956;3.106;2024-02-26T11:08:19;6.30;99.90
17918;DHT22;9084;50.956;3.106;2024-02-26T11:10:47;6.30;99.90
17918;DHT22;9084;50.956;3.106;2024-02-26T11:13:15;6.30;99.90
17918;DHT22;9084;50.956;3.106;2024-02-26T11:15:43;6.30;99.90
17918;DHT22;9084;50.956;3.106;2024-02-26T11:18:10;6.30;99.90
17918;DHT22;9084;50.956;3.106;2024-02-26T11:20:38;6.30;99.90
17918;DHT22;9084;50.956;3.106;2024-02-26T11:23:06;6.40;99.90
17918;DHT22;9084;50.956;3.106;2024-02-26T11:25:32;6.40;99.90
17918;DHT22;9084;50.956;3.106;2024-02-26T11:28:04;6.40;99.90
17918;DHT22;9084;50.956;3.106;2024-02-26T11:30:33;6.40;99.90
17918;DHT22;9084;50.956;3.106;2024-02-26T11:33:01;6.40;99.90
17918;DHT22;9084;50.956;3.106;2024-02-26T11:35:29;6.40;99.90
17918;DHT22;9084;50.956;3.106;2024-02-26T11:37:58;6.40;99.90
17918;DHT22;9084;50.956;3.106;2024-02-26T11:40:24;6.50;99.90
17918;DHT22;9084;50.956;3.106;2024-02-26T11:42:54;6.50;99.90
17918;DHT22;9084;50.956;3.106;2024-02-26T11:48:04;6.40;99.90
17918;DHT22;9084;50.956;3.106;2024-02-26T11:50:39;6.40;99.90
17918;DHT22;9084;50.956;3.106;2024-02-26T11:53:32;6.50;99.90
17918;DHT22;9084;50.956;3.106;2024-02-26T11:56:21;6.40;99.90
17918;DHT22;9084;50.956;3.106;2024-02-26T11:58:50;6.50;99.90
17918;DHT22;9084;50.956;3.106;2024-02-26T12:01:38;6.40;99.90
17918;DHT22;9084;50.956;3.106;2024-02-26T12:04:08;6.50;99.90
17918;DHT22;9084;50.956;3.106;2024-02-26T12:06:47;6.50;99.90
17918;DHT22;9084;50.956;3.106;2024-02-26T12:09:34;6.50;99.90
17918;DHT22;9084;50.956;3.106;2024-02-26T12:12:08;6.50;99.90
17918;DHT22;9084;50.956;3.106;2024-02-26T12:14:38;6.50;99.90
17918;DHT22;9084;50.956;3.106;2024-02-26T12:17:07;6.50;99.90
17918;DHT22;9084;50.956;3.106;2024-02-26T12:19:35;6.40;99.90
17918;DHT22;9084;50.956;3.106;2024-02-26T12:22:02;6.40;99.90
17918;DHT22;9084;50.956;3.106;2024-02-26T12:24:29;6.40;99.90
17918;DHT22;9084;50.956;3.106;2024-02-26T12:26:54;6.40;99.90
17918;DHT22;9084;50.956;3.106;2024-02-26T12:29:20;6.50;99.90
17918;DHT22;9084;50.956;3.106;2024-02-26T12:31:47;6.50;99.90
17918;DHT22;9084;50.956;3.106;2024-02-26T12:34:15;6.50;99.90
17918;DHT22;9084;50.956;3.106;2024-02-26T12:36:42;6.50;99.90
17918;DHT22;9084;50.956;3.106;2024-02-26T12:39:08;6.50;99.90
17918;DHT22;9084;50.956;3.106;2024-02-26T12:41:35;6.50;99.90
17918;DHT22;9084;50.956;3.106;2024-02-26T12:44:08;6.50;99.90
17918;DHT22;9084;50.956;3.106;2024-02-26T12:46:33;6.50;99.90
17918;DHT22;9084;50.956;3.106;2024-02-26T12:49:01;6.50;99.90
17918;DHT22;9084;50.956;3.106;2024-02-26T12:51:31;6.50;99.90
17918;DHT22;9084;50.956;3.106;2024-02-26T12:53:58;6.60;99.90
17918;DHT22;9084;50.956;3.106;2024-02-26T12:56:25;6.60;99.90
17918;DHT22;9084;50.956;3.106;2024-02-26T12:58:55;6.60;99.90
17918;DHT22;9084;50.956;3.106;2024-02-26T13:01:23;6.60;99.90
17918;DHT22;9084;50.956;3.106;2024-02-26T13:03:50;6.60;99.90
17918;DHT22;9084;50.956;3.106;2024-02-26T13:06:17;6.60;99.90
17918;DHT22;9084;50.956;3.106;2024-02-26T13:08:46;6.60;99.90
17918;DHT22;9084;50.956;3.106;2024-02-26T13:11:15;6.60;99.90
17918;DHT22;9084;50.956;3.106;2024-02-26T13:13:40;6.60;99.90
17918;DHT22;9084;50.956;3.106;2024-02-26T13:16:09;6.60;99.90
17918;DHT22;9084;50.956;3.106;2024-02-26T13:18:40;6.60;99.90
17918;DHT22;9084;50.956;3.106;2024-02-26T13:21:11;6.60;99.90
17918;DHT22;9084;50.956;3.106;2024-02-26T13:23:38;6.60;99.90
17918;DHT22;9084;50.956;3.106;2024-02-26T13:26:04;6.60;99.90
17918;DHT22;9084;50.956;3.106;2024-02-26T13:28:30;6.60;99.90
17918;DHT22;9084;50.956;3.106;2024-02-26T13:30:59;6.60;99.90
17918;DHT22;9084;50.956;3.106;2024-02-26T13:33:28;6.60;99.90
17918;DHT22;9084;50.956;3.106;2024-02-26T13:35:55;6.60;99.90
17918;DHT22;9084;50.956;3.106;2024-02-26T13:38:23;6.60;99.90
17918;DHT22;9084;50.956;3.106;2024-02-26T13:40:52;6.70;99.90
17918;DHT22;9084;50.956;3.106;2024-02-26T13:43:18;6.70;99.90
17918;DHT22;9084;50.956;3.106;2024-02-26T13:45:44;6.70;99.90
17918;DHT22;9084;50.956;3.106;2024-02-26T13:48:11;6.70;99.90
17918;DHT22;9084;50.956;3.106;2024-02-26T13:50:46;6.70;99.90
17918;DHT22;9084;50.956;3.106;2024-02-26T13:53:12;6.70;99.90
17918;DHT22;9084;50.956;3.106;2024-02-26T13:55:39;6.70;99.90
17918;DHT22;9084;50.956;3.106;2024-02-26T13:58:08;6.70;99.90
17918;DHT22;9084;50.956;3.106;2024-02-26T14:00:34;6.70;99.90
17918;DHT22;9084;50.956;3.106;2024-02-26T14:03:02;6.70;99.90
17918;DHT22;9084;50.956;3.106;2024-02-26T14:05:28;6.70;99.90
17918;DHT22;9084;50.956;3.106;2024-02-26T14:07:55;6.70;99.90
17918;DHT22;9084;50.956;3.106;2024-02-26T14:10:23;6.70;99.90
17918;DHT22;9084;50.956;3.106;2024-02-26T14:12:49;6.80;99.90
17918;DHT22;9084;50.956;3.106;2024-02-26T14:15:14;6.80;99.90
17918;DHT22;9084;50.956;3.106;2024-02-26T14:17:40;6.80;99.90
17918;DHT22;9084;50.956;3.106;2024-02-26T14:20:06;6.80;99.90
17918;DHT22;9084;50.956;3.106;2024-02-26T14:22:36;6.80;99.90
17918;DHT22;9084;50.956;3.106;2024-02-26T14:25:01;6.80;99.90
17918;DHT22;9084;50.956;3.106;2024-02-26T14:27:27;6.80;99.90
17918;DHT22;9084;50.956;3.106;2024-02-26T14:29:53;6.80;99.90
17918;DHT22;9084;50.956;3.106;2024-02-26T14:32:20;6.80;99.90
17918;DHT22;9084;50.956;3.106;2024-02-26T14:34:46;6.90;99.90
17918;DHT22;9084;50.956;3.106;2024-02-26T14:37:12;6.80;99.90
17918;DHT22;9084;50.956;3.106;2024-02-26T14:39:40;6.90;99.90
17918;DHT22;9084;50.956;3.106;2024-02-26T14:42:10;6.90;99.90
17918;DHT22;9084;50.956;3.106;2024-02-26T14:44:35;6.90;99.90
17918;DHT22;9084;50.956;3.106;2024-02-26T14:47:01;6.90;99.90
17918;DHT22;9084;50.956;3.106;2024-02-26T14:49:27;6.90;99.90
17918;DHT22;9084;50.956;3.106;2024-02-26T14:51:57;6.90;99.90
17918;DHT22;9084;50.956;3.106;2024-02-26T14:54:22;6.90;99.90
17918;DHT22;9084;50.956;3.106;2024-02-26T14:56:50;6.90;99.90
17918;DHT22;9084;50.956;3.106;2024-02-26T14:59:18;7.00;99.90
17918;DHT22;9084;50.956;3.106;2024-02-26T15:01:45;7.00;99.90
17918;DHT22;9084;50.956;3.106;2024-02-26T15:04:11;7.00;99.90
17918;DHT22;9084;50.956;3.106;2024-02-26T15:06:38;7.00;99.90
17918;DHT22;9084;50.956;3.106;2024-02-26T15:09:04;7.10;99.90
17918;DHT22;9084;50.956;3.106;2024-02-26T15:11:32;7.00;99.90
17918;DHT22;9084;50.956;3.106;2024-02-26T15:14:00;7.00;99.90
17918;DHT22;9084;50.956;3.106;2024-02-26T15:16:26;7.00;99.90
17918;DHT22;9084;50.956;3.106;2024-02-26T15:18:51;7.00;99.90
17918;DHT22;9084;50.956;3.106;2024-02-26T15:21:17;7.00;99.90
17918;DHT22;9084;50.956;3.106;2024-02-26T15:23:43;7.00;99.90
17918;DHT22;9084;50.956;3.106;2024-02-26T15:26:10;7.00;99.90
17918;DHT22;9084;50.956;3.106;2024-02-26T15:28:36;7.00;99.90
17918;DHT22;9084;50.956;3.106;2024-02-26T15:31:02;7.00;99.90
17918;DHT22;9084;50.956;3.106;2024-02-26T15:33:28;7.00;99.90
17918;DHT22;9084;50.956;3.106;2024-02-26T15:35:56;7.00;99.90
17918;DHT22;9084;50.956;3.106;2024-02-26T15:38:21;6.90;99.90
17918;DHT22;9084;50.956;3.106;2024-02-26T15:40:49;6.90;99.90
17918;DHT22;9084;50.956;3.106;2024-02-26T15:43:16;6.90;99.90
17918;DHT22;9084;50.956;3.106;2024-02-26T15:45:41;6.90;99.90
17918;DHT22;9084;50.956;3.106;2024-02-26T15:48:09;6.90;99.90
17918;DHT22;9084;50.956;3.106;2024-02-26T15:50:37;6.90;99.90
17918;DHT22;9084;50.956;3.106;2024-02-26T15:53:06;6.90;99.90
17918;DHT22;9084;50.956;3.106;2024-02-26T15:55:32;6.90;99.90
17918;DHT22;9084;50.956;3.106;2024-02-26T15:57:58;6.90;99.90
17918;DHT22;9084;50.956;3.106;2024-02-26T16:00:23;6.90;99.90
17918;DHT22;9084;50.956;3.106;2024-02-26T16:02:52;6.80;99.90
17918;DHT22;9084;50.956;3.106;2024-02-26T16:05:19;6.90;99.90